Latest Weather Observations for Derby

IDW60801

Issued at 11:35 pm WST Thursday 21 August 2014 (issued every 30 minutes, with the page automatically refreshed every 10 minutes)

About weather observations | Map of weather stations | Latest weather observations for WA | Other Formats
Station Details ID: 003032 Name: DERBY AERO Lat: -17.37 Lon: 123.66 Height: 6.2 m
Data from the previous 72 hours. | See also: Recent months at Derby
Date/Time
WST
Temp
°C
App
Temp
°C
Dew
Point
Rel
Hum
%
Delta-T
°C
Wind Press
QNH
hPa
Press
MSL
hPa
Rain
since 9 am
mm
Dir
 
Spd
km/h
Gust
km/h
Spd
kts
Gust
kts
21/11:30pm 18.6 17.2 10.9 61 4.2 S 9 13 5 7 1015.5 1015.5 0.0
21/11:00pm 17.3 17.2 13.2 77 2.3 SSE 6 9 3 5 1015.4 1015.4 0.0
21/10:30pm 17.5 16.5 13.4 77 2.3 S 11 13 6 7 1015.5 1015.5 0.0
21/10:00pm 17.0 17.8 12.5 75 2.5 CALM 0 0 0 0 1015.4 1015.4 0.0
21/09:30pm 20.0 20.8 15.8 77 2.5 NNW 6 7 3 4 1015.3 1015.3 0.0
21/09:00pm 19.8 19.5 14.4 71 3.1 NW 9 9 5 5 1015.3 1015.3 0.0
21/08:30pm 20.8 21.1 15.1 70 3.4 NW 7 9 4 5 1015.3 1015.3 0.0
21/08:00pm 21.6 21.1 13.8 61 4.5 NNW 9 11 5 6 1015.1 1015.1 0.0
21/07:30pm 22.3 20.8 12.0 52 5.8 N 11 15 6 8 1014.6 1014.6 0.0
21/07:00pm 22.6 20.6 12.8 54 5.6 N 15 19 8 10 1014.3 1014.3 0.0
21/06:30pm 22.6 21.1 12.0 51 6.0 NNW 11 13 6 7 1013.9 1013.9 0.0
21/06:00pm 23.6 21.3 10.6 44 7.2 NNW 13 15 7 8 1013.6 1013.6 0.0
21/05:30pm 25.1 22.5 9.4 37 8.6 NW 13 17 7 9 1013.4 1013.4 0.0
21/05:00pm 27.0 22.6 6.4 27 10.8 NW 19 24 10 13 1013.1 1013.1 0.0
21/04:30pm 28.0 23.2 5.6 24 11.6 NW 20 24 11 13 1012.7 1012.7 0.0
21/04:00pm 28.6 23.8 7.2 26 11.5 NW 22 26 12 14 1012.5 1012.5 0.0
21/03:30pm 29.1 24.0 7.6 26 11.6 NW 24 28 13 15 1012.4 1012.4 0.0
21/03:00pm 29.5 25.2 10.6 31 10.8 NW 24 32 13 17 1012.4 1012.4 0.0
21/02:30pm 29.3 24.8 11.4 33 10.3 NW 26 32 14 17 1012.6 1012.6 0.0
21/02:00pm 29.8 25.4 11.8 33 10.5 WNW 26 32 14 17 1012.7 1012.7 0.0
21/01:30pm 30.3 25.5 8.7 26 12.0 NW 24 32 13 17 1012.9 1012.9 0.0
21/01:00pm 30.7 27.0 10.1 28 11.7 W 20 28 11 15 1013.4 1013.4 0.0
21/12:30pm 30.3 26.8 8.7 26 12.0 W 17 22 9 12 1013.9 1013.9 0.0
21/12:00pm 30.1 27.1 9.1 27 11.7 W 15 22 8 12 1014.4 1014.4 0.0
21/11:30am 29.9 27.6 8.9 27 11.7 NW 11 19 6 10 1014.9 1014.9 0.0
21/11:00am 30.4 27.3 3.4 18 13.7 NNE 9 17 5 9 1015.3 1015.3 0.0
21/10:30am 28.9 26.4 3.7 20 12.7 SSE 6 13 3 7 1015.6 1015.6 0.0
21/10:00am 27.4 25.3 6.8 27 10.9 E 7 11 4 6 1016.0 1016.0 0.0
21/09:30am 24.7 22.3 6.9 32 9.3 NNE 9 13 5 7 1016.4 1016.4 0.0
21/09:00am 23.0 21.5 9.0 41 7.5 N 7 11 4 6 1016.5 1016.5 0.0
21/08:30am 20.9 20.3 10.4 51 5.7 N 4 9 2 5 1016.4 1016.4 0.0
21/08:00am 19.5 19.1 9.7 53 5.2 ESE 2 7 1 4 1016.2 1016.2 0.0
21/07:30am 17.3 15.7 8.2 55 4.6 ENE 6 7 3 4 1015.8 1015.8 0.0
21/07:00am 14.6 12.8 8.1 65 3.2 ENE 7 11 4 6 1015.7 1015.7 0.0
21/06:30am 12.0 9.9 8.3 78 1.8 SSE 9 13 5 7 1015.2 1015.2 0.0
21/06:00am 10.4 8.4 7.3 81 1.5 S 7 9 4 5 1014.9 1014.9 0.0
21/05:30am 10.7 9.2 8.6 87 1.0 S 6 7 3 4 1014.4 1014.4 0.0
21/05:00am 11.1 9.8 7.6 79 1.7 S 4 6 2 3 1014.3 1014.3 0.0
21/04:30am 11.0 8.9 8.4 84 1.3 S 9 9 5 5 1014.2 1014.2 0.0
21/04:00am 10.9 9.7 8.1 83 1.4 SSE 4 9 2 5 1014.2 1014.2 0.0
21/03:30am 12.0 11.1 9.4 84 1.3 SE 4 7 2 4 1014.3 1014.3 0.0
21/03:00am 12.1 11.9 8.9 81 1.6 SE 0 0 0 0 1014.2 1014.2 0.0
21/02:30am 12.8 12.8 9.8 82 1.5 CALM 0 0 0 0 1014.3 1014.3 0.0
21/02:00am 12.6 12.5 9.4 81 1.6 CALM 0 0 0 0 1014.4 1014.4 0.0
21/01:30am 13.8 13.9 10.0 78 2.0 CALM 0 0 0 0 1014.6 1014.6 0.0
21/01:00am 14.7 14.6 10.7 77 2.1 SE 2 6 1 3 1014.8 1014.8 0.0
21/12:30am 13.6 12.3 9.8 78 2.0 SSE 7 9 4 5 1014.9 1014.9 0.0
21/12:00am 16.2 15.0 9.4 64 3.5 NW 6 7 3 4 1014.9 1014.9 0.0
 
Date/Time
WST
Temp
°C
App
Temp
°C
Dew
Point
Rel
Hum
%
Delta-T
°C
Wind Press
QNH
hPa
Press
MSL
hPa
Rain
since 9 am
mm
Dir
 
Spd
km/h
Gust
km/h
Spd
kts
Gust
kts
20/11:30pm 17.7 16.7 12.2 70 3.0 NNW 9 9 5 5 1015.0 1015.0 0.0
20/11:00pm 17.7 16.8 12.6 72 2.8 NNW 9 13 5 7 1015.0 1015.0 0.0
20/10:30pm 18.5 17.2 13.6 73 2.8 N 13 15 7 8 1015.1 1015.1 0.0
20/10:00pm 17.2 15.6 7.8 54 4.7 NNW 6 9 3 5 1015.1 1015.1 0.0
20/09:30pm 16.7 14.8 6.8 52 4.9 NNE 6 9 3 5 1015.1 1015.1 0.0
20/09:00pm 17.9 16.1 7.9 52 5.1 NE 7 17 4 9 1014.8 1014.8 0.0
20/08:30pm 17.1 16.5 7.5 53 4.8 CALM 0 0 0 0 1014.7 1014.7 0.0
20/08:00pm 17.4 16.7 6.9 50 5.2 CALM 0 0 0 0 1014.6 1014.6 0.0
20/07:30pm 18.2 17.6 7.3 49 5.5 CALM 0 0 0 0 1014.3 1014.3 0.0
20/07:00pm 20.6 20.1 7.9 44 6.6 CALM 0 0 0 0 1013.9 1013.9 0.0
20/06:30pm 22.7 22.1 7.3 37 8.0 CALM 0 0 0 0 1013.8 1013.8 0.0
20/06:00pm 24.0 22.1 7.6 35 8.6 NNW 7 9 4 5 1013.6 1013.6 0.0
20/05:30pm 24.9 23.2 7.5 33 9.2 NW 6 9 3 5 1013.5 1013.5 0.0
20/05:00pm 26.3 23.2 7.4 30 10.0 NW 13 15 7 8 1013.4 1013.4 0.0
20/04:30pm 27.4 23.8 6.8 27 10.9 NW 15 19 8 10 1013.2 1013.2 0.0
20/04:00pm 28.1 23.7 7.4 27 11.1 NW 20 24 11 13 1013.0 1013.0 0.0
20/03:30pm 28.7 24.0 6.1 24 11.9 NW 20 24 11 13 1012.8 1012.8 0.0
20/03:00pm 29.6 25.1 6.3 23 12.4 WNW 19 24 10 13 1012.7 1012.7 0.0
20/02:30pm 29.8 24.7 2.9 18 13.5 WNW 19 22 10 12 1012.8 1012.8 0.0
20/02:00pm 30.6 25.4 3.6 18 13.8 NW 20 26 11 14 1012.9 1012.9 0.0
20/01:30pm 30.6 26.3 5.1 20 13.3 W 17 26 9 14 1013.4 1013.4 0.0
20/01:00pm 31.5 28.0 -1.3 12 15.5 ENE 7 17 4 9 1013.9 1013.9 0.0
20/12:30pm 31.5 27.6 -1.3 12 15.5 ENE 9 22 5 12 1014.2 1014.2 0.0
20/12:00pm 31.5 27.2 -1.3 12 15.5 NE 11 20 6 11 1014.9 1014.9 0.0
20/11:30am 30.7 25.4 -0.8 13 14.9 NE 17 30 9 16 1015.4 1015.4 0.0
20/11:00am 30.2 26.2 0.7 15 14.3 E 11 20 6 11 1015.9 1015.9 0.0
20/10:30am 28.4 25.8 4.0 21 12.4 W 7 13 4 7 1016.4 1016.4 0.0
20/10:00am 27.3 25.4 6.7 27 10.8 S 6 11 3 6 1016.7 1016.7 0.0
20/09:30am 25.8 24.6 7.9 32 9.6 SW 4 9 2 5 1016.9 1016.9 0.0
20/09:00am 23.6 22.1 6.8 34 8.7 ESE 4 9 2 5 1016.9 1016.9 0.0
20/08:30am 20.8 20.8 9.7 49 5.9 CALM 0 6 0 3 1016.9 - 0.0
20/08:00am 18.3 18.4 10.2 59 4.3 CALM 0 0 0 0 1016.8 1016.8 0.0
20/07:30am 16.8 15.8 8.8 59 4.1 ENE 4 6 2 3 1016.9 - 0.0
20/07:00am 13.8 13.1 6.9 63 3.3 CALM 0 0 0 0 1016.4 1016.4 0.0
20/06:30am 10.6 8.5 6.0 73 2.1 ENE 6 7 3 4 1016.2 - 0.0
20/06:00am 10.0 7.9 5.8 75 1.9 SE 6 6 3 3 1015.9 1015.9 0.0
20/05:30am 10.0 9.0 5.6 74 2.0 CALM 0 0 0 0 1015.7 - 0.0
20/05:00am 10.7 9.8 5.9 72 2.2 CALM 0 4 0 2 1015.5 1015.5 0.0
20/04:30am 10.3 8.2 5.7 73 2.1 SE 6 7 3 4 1015.3 - 0.0
20/04:00am 10.7 8.6 5.7 71 2.3 ENE 6 7 3 4 1015.0 1015.0 0.0
20/03:30am 11.6 10.8 6.3 70 2.5 CALM 0 0 0 0 1015.0 - 0.0
20/03:00am 11.7 10.8 6.2 69 2.6 CALM 0 0 0 0 1015.0 1015.0 0.0
20/02:30am 12.2 10.3 6.5 68 2.7 SE 6 7 3 4 1015.0 - 0.0
20/02:00am 13.0 11.0 7.0 67 2.9 SE 7 9 4 5 1015.1 1015.1 0.0
20/01:30am 13.2 11.5 7.6 69 2.7 SSE 6 7 3 4 1015.3 - 0.0
20/01:00am 13.3 11.6 7.5 68 2.8 SE 6 9 3 5 1015.6 1015.6 0.0
20/12:30am 13.1 11.3 7.8 70 2.6 SE 7 9 4 5 1015.8 - 0.0
20/12:00am 14.9 14.3 8.8 67 3.1 SSE 2 6 1 3 1016.0 1016.0 0.0
 
Date/Time
WST
Temp
°C
App
Temp
°C
Dew
Point
Rel
Hum
%
Delta-T
°C
Wind Press
QNH
hPa
Press
MSL
hPa
Rain
since 9 am
mm
Dir
 
Spd
km/h
Gust
km/h
Spd
kts
Gust
kts
19/11:30pm 13.7 12.6 8.5 71 2.6 SE 4 7 2 4 1016.2 - 0.0
19/11:00pm 14.8 14.7 9.6 71 2.7 CALM 0 0 0 0 1016.3 1016.3 0.0
19/10:30pm 17.0 16.7 10.1 64 3.6 SSW 2 6 1 3 1016.4 - 0.0
19/10:00pm 16.1 15.4 10.2 68 3.1 E 4 7 2 4 1016.5 1016.5 0.0
19/09:30pm 19.0 18.1 10.8 59 4.4 NW 6 7 3 4 1016.4 - 0.0
19/09:00pm 19.5 18.3 11.5 60 4.4 NNW 9 9 5 5 1016.3 1016.3 0.0
19/08:30pm 19.9 19.3 12.4 62 4.2 N 7 9 4 5 1016.1 - 0.0
19/08:00pm 20.2 19.1 13.2 64 4.0 NNW 11 15 6 8 1015.8 1015.8 0.0
19/07:30pm 20.1 17.8 11.8 59 4.6 NNW 15 17 8 9 1015.5 - 0.0
19/07:00pm 20.7 18.4 7.3 42 6.9 N 9 13 5 7 1015.0 1015.0 0.0
19/06:30pm 21.4 19.1 7.3 40 7.3 NNW 9 11 5 6 1014.6 - 0.0
19/06:00pm 23.2 20.0 6.9 35 8.4 N 13 15 7 8 1014.3 1014.3 0.0
19/05:30pm 25.0 20.8 3.6 25 10.5 NNW 15 19 8 10 1014.0 - 0.0
19/05:00pm 26.4 20.9 1.7 20 11.8 NNW 20 22 11 12 1013.8 1013.8 0.0
19/04:30pm 27.9 22.2 0.6 17 13.0 NNW 20 24 11 13 1013.7 - 0.0
19/04:00pm 29.0 23.2 -0.2 15 13.8 NNW 20 26 11 14 1013.6 1013.6 0.0
19/03:30pm 29.2 23.3 -1.0 14 14.1 NW 20 24 11 13 1013.6 - 0.0
19/03:00pm 30.0 24.3 0.6 15 14.2 NW 20 28 11 15 1013.5 1013.5 0.0
19/02:30pm 29.5 23.1 1.1 16 13.8 NW 24 28 13 15 1013.5 - 0.0
19/02:00pm 30.1 23.8 1.5 16 14.0 NW 24 30 13 16 1014.0 1014.0 0.0
19/01:30pm 31.6 26.1 0.9 14 15.0 NW 19 28 10 15 1014.2 - 0.0
19/01:00pm 30.9 25.7 0.3 14 14.8 NW 17 22 9 12 1014.6 1014.6 0.0
19/12:30pm 30.2 26.0 -1.2 13 14.7 W 11 15 6 8 1015.2 - 0.0
19/12:00pm 29.1 24.9 -1.1 14 14.0 S 11 17 6 9 1015.8 1015.8 0.0
19/11:30am 29.0 25.8 0.7 16 13.6 S 7 13 4 7 1016.5 - 0.0
19/11:00am 28.5 24.7 1.9 18 13.0 SW 11 20 6 11 1017.1 1017.1 0.0
19/10:30am 27.3 23.3 3.1 21 12.0 W 13 19 7 10 1017.5 - 0.0
19/10:00am 26.3 23.4 4.7 25 10.9 W 9 13 5 7 1017.9 1017.9 0.0
19/09:30am 24.8 21.8 4.0 26 10.3 W 9 13 5 7 1018.1 - 0.0
19/09:00am 23.2 20.5 3.7 28 9.5 W 7 11 4 6 1018.3 1018.3 0.0
19/08:30am 21.8 19.2 4.4 32 8.5 NNW 7 9 4 5 1018.3 - 0.0
19/08:00am 19.8 18.5 7.5 45 6.3 N 4 7 2 4 1018.2 1018.2 0.0
19/07:30am 17.0 15.6 7.4 53 4.8 NNE 4 7 2 4 1018.0 - 0.0
19/07:00am 14.8 12.7 5.9 55 4.2 NE 6 7 3 4 1018.0 1018.0 0.0
19/06:30am 12.5 9.6 4.7 59 3.6 NE 9 11 5 6 1017.8 - 0.0
19/06:00am 10.6 9.4 4.7 67 2.6 CALM 0 0 0 0 1017.7 1017.7 0.0
19/05:30am 10.4 9.1 4.3 66 2.7 CALM 0 0 0 0 1017.4 - 0.0
19/05:00am 11.2 10.0 4.7 64 2.9 CALM 0 0 0 0 1017.2 1017.2 0.0
19/04:30am 11.5 10.3 4.7 63 3.1 CALM 0 0 0 0 1016.8 - 0.0
19/04:00am 12.8 10.5 4.8 58 3.7 SE 6 7 3 4 1016.7 1016.7 0.0
19/03:30am 13.6 11.2 5.3 57 3.9 SE 7 9 4 5 1016.6 - 0.0
19/03:00am 12.6 10.5 6.0 64 3.1 SE 6 9 3 5 1016.6 1016.6 0.0
19/02:30am 13.0 10.7 5.9 62 3.3 SSE 7 9 4 5 1016.8 - 0.0
19/02:00am 13.5 11.4 6.6 63 3.3 S 7 9 4 5 1017.0 1017.0 0.0
19/01:30am 15.2 13.0 6.2 55 4.3 SSE 7 9 4 5 1017.0 - 0.0
19/01:00am 15.5 13.1 6.8 56 4.3 SSE 9 13 5 7 1017.2 1017.2 0.0
19/12:30am 15.2 12.7 8.2 63 3.5 SE 11 13 6 7 1017.3 - 0.0
19/12:00am 15.1 13.5 10.1 72 2.6 SSE 9 11 5 6 1017.5 1017.5 0.0

Other Formats:

Comma delimited format used in spreadsheet applications
http://www.bom.gov.au/fwo/IDW60801/IDW60801.95205.axf

JavaScript Object Notation format (JSON) in row-major order
http://www.bom.gov.au/fwo/IDW60801/IDW60801.95205.json